Time;durP1;ratioP1;P1;durP2;ratioP2;P2;SDS_P1;SDS_P2;PMS_P1;PMS_P2;Temp;Humidity;BMP_temperature;BMP_pressure;BME280_temperature;BME280_humidity;BME280_pressure;Samples;Min_cycle;Max_cycle;Signal;HPM_P1;HPM_P2
2023/04/29 00:00:15;;;;;;;7.53;7.33;;;20.60;59.10;;;;;;5093672;28;20521;-70
2023/04/29 00:02:42;;;;;;;8.23;7.40;;;20.70;59.20;;;;;;5093492;28;20442;-71
2023/04/29 00:05:09;;;;;;;6.80;6.70;;;20.60;59.30;;;;;;5093443;28;20525;-71
2023/04/29 00:07:37;;;;;;;7.30;7.10;;;20.60;59.40;;;;;;5092396;28;20501;-71
2023/04/29 00:10:05;;;;;;;7.43;7.23;;;20.60;59.40;;;;;;5093573;28;20949;-71
2023/04/29 00:12:32;;;;;;;7.20;7.00;;;20.50;59.40;;;;;;5093389;28;20530;-71
2023/04/29 00:14:59;;;;;;;6.60;6.50;;;20.50;59.50;;;;;;5093098;28;21109;-70
2023/04/29 00:17:26;;;;;;;7.23;7.13;;;20.50;59.60;;;;;;5093043;28;20553;-71
2023/04/29 00:19:53;;;;;;;6.87;6.77;;;20.40;59.60;;;;;;5092993;28;20904;-71
2023/04/29 00:22:20;;;;;;;7.10;7.00;;;20.50;59.70;;;;;;5093098;28;20446;-71
2023/04/29 00:24:49;;;;;;;7.10;7.00;;;20.40;59.70;;;;;;5093356;28;20438;-70
2023/04/29 00:27:17;;;;;;;7.40;7.30;;;20.40;59.70;;;;;;5093024;28;20517;-70
2023/04/29 00:29:44;;;;;;;7.37;7.17;;;20.40;59.80;;;;;;5092697;28;20450;-71
2023/04/29 00:32:11;;;;;;;8.10;7.87;;;20.40;59.80;;;;;;5081255;28;20451;-71
2023/04/29 00:34:37;;;;;;;7.87;7.67;;;20.30;59.90;;;;;;5092954;28;20885;-70
2023/04/29 00:37:04;;;;;;;7.33;7.13;;;20.30;60.00;;;;;;5092958;28;20517;-70
2023/04/29 00:39:31;;;;;;;7.50;7.30;;;20.30;60.10;;;;;;5092559;28;20557;-71
2023/04/29 00:42:02;;;;;;;7.87;7.57;;;20.30;60.10;;;;;;5092552;28;21018;-70
2023/04/29 00:44:29;;;;;;;7.17;7.07;;;20.30;60.20;;;;;;5092737;28;20529;-71
2023/04/29 00:46:56;;;;;;;7.70;7.50;;;20.30;60.30;;;;;;5092492;28;20474;-71
2023/04/29 00:49:23;;;;;;;7.90;7.70;;;20.30;60.40;;;;;;5092351;28;20492;-70
2023/04/29 00:51:50;;;;;;;7.47;7.27;;;20.20;61.10;;;;;;5092507;28;20479;-71
2023/04/29 00:54:18;;;;;;;8.60;8.30;;;20.20;60.40;;;;;;5092535;28;20499;-71
2023/04/29 00:56:46;;;;;;;8.00;7.80;;;20.20;60.60;;;;;;5092229;28;20883;-71
2023/04/29 00:59:15;;;;;;;7.67;7.47;;;20.20;60.60;;;;;;5092225;28;20533;-70
2023/04/29 01:01:43;;;;;;;8.20;8.00;;;20.20;60.60;;;;;;5092503;28;20533;-70
2023/04/29 01:04:10;;;;;;;7.87;7.60;;;20.20;60.60;;;;;;5092720;28;20949;-71
2023/04/29 01:06:58;;;;;;;7.60;7.40;;;20.20;60.60;;;;;;5092688;28;20477;-71
2023/04/29 01:09:39;;;;;;;7.80;7.60;;;20.20;60.60;;;;;;5092388;28;20454;-71
2023/04/29 01:12:13;;;;;;;7.70;7.50;;;20.20;60.50;;;;;;5092596;28;20466;-71
2023/04/29 01:14:46;;;;;;;8.13;7.83;;;20.30;60.70;;;;;;5092492;28;20470;-71
2023/04/29 01:17:21;;;;;;;8.43;8.13;;;20.20;60.50;;;;;;5092727;28;20501;-71
2023/04/29 01:19:52;;;;;;;8.27;7.97;;;20.20;60.60;;;;;;5096598;28;20465;-71
2023/04/29 01:22:20;;;;;;;9.03;8.63;;;20.20;60.70;;;;;;5108584;28;20457;-71
2023/04/29 01:24:49;;;;;;;9.17;8.77;;;20.20;60.70;;;;;;5108318;28;20442;-71
2023/04/29 01:27:25;;;;;;;9.30;8.90;;;20.20;60.60;;;;;;5108813;28;20562;-71
2023/04/29 01:29:59;;;;;;;8.47;8.20;;;20.20;60.80;;;;;;5108567;28;20430;-71
2023/04/29 01:32:36;;;;;;;9.57;9.03;;;20.20;60.80;;;;;;5110183;28;20417;-71
2023/04/29 01:35:15;;;;;;;9.03;8.67;;;20.20;60.80;;;;;;5096707;28;20481;-71
2023/04/29 01:37:52;;;;;;;8.80;8.40;;;20.20;60.90;;;;;;5091618;28;20965;-71
2023/04/29 01:40:26;;;;;;;8.50;8.20;;;20.20;61.00;;;;;;5092054;28;20569;-71
2023/04/29 01:43:02;;;;;;;8.47;8.17;;;20.20;61.00;;;;;;5091891;28;20446;-71
2023/04/29 01:45:31;;;;;;;8.80;8.50;;;20.10;60.90;;;;;;5091857;28;20445;-71
2023/04/29 01:47:59;;;;;;;8.17;7.87;;;20.20;61.20;;;;;;5091313;28;20481;-71
2023/04/29 01:50:26;;;;;;;8.73;8.43;;;20.20;61.10;;;;;;5091863;28;20995;-71
2023/04/29 01:52:52;;;;;;;8.03;7.73;;;20.10;61.00;;;;;;5091710;28;20474;-71
2023/04/29 01:55:21;;;;;;;8.13;7.83;;;20.10;61.10;;;;;;5091704;28;20450;-71
2023/04/29 01:57:48;;;;;;;8.50;8.10;;;20.10;61.20;;;;;;5091313;28;20458;-71
2023/04/29 02:00:15;;;;;;;9.10;8.60;;;20.10;61.20;;;;;;5091619;28;20574;-71
2023/04/29 02:02:42;;;;;;;8.40;8.10;;;20.10;61.20;;;;;;5091564;28;20442;-71
2023/04/29 02:05:10;;;;;;;8.77;8.47;;;20.10;61.20;;;;;;5091362;28;20537;-71
2023/04/29 02:07:37;;;;;;;9.00;8.70;;;20.10;61.40;;;;;;5091363;28;20473;-71
2023/04/29 02:10:04;;;;;;;9.07;8.63;;;20.10;61.30;;;;;;5091415;28;20530;-71
2023/04/29 02:12:33;;;;;;;9.00;8.63;;;20.10;61.50;;;;;;5091609;28;20519;-71
2023/04/29 02:15:00;;;;;;;9.20;8.90;;;20.10;61.40;;;;;;5091405;28;20451;-71
2023/04/29 02:17:27;;;;;;;9.20;8.90;;;20.00;61.30;;;;;;5071317;28;20459;-71
2023/04/29 02:19:54;;;;;;;9.60;9.10;;;20.10;61.50;;;;;;5071219;28;20569;-71
2023/04/29 02:22:21;;;;;;;10.20;9.67;;;20.10;61.50;;;;;;5071238;28;20435;-71
2023/04/29 02:24:48;;;;;;;9.60;9.20;;;20.00;61.50;;;;;;5071151;28;20522;-71
2023/04/29 02:27:15;;;;;;;9.90;9.50;;;20.00;61.60;;;;;;5089392;28;20548;-71
2023/04/29 02:29:43;;;;;;;10.53;10.00;;;20.00;61.60;;;;;;5091174;28;20537;-71
2023/04/29 02:32:10;;;;;;;9.77;9.37;;;20.00;61.70;;;;;;5093894;28;21016;-71
2023/04/29 02:34:37;;;;;;;9.90;9.50;;;20.00;61.70;;;;;;5095021;28;20824;-71
2023/04/29 02:37:05;;;;;;;9.87;9.43;;;20.00;61.80;;;;;;5094969;28;20470;-70
2023/04/29 02:39:31;;;;;;;10.00;9.40;;;20.00;61.80;;;;;;5095026;28;20457;-71
2023/04/29 02:41:58;;;;;;;9.60;9.20;;;20.00;61.80;;;;;;5095141;28;20481;-71
2023/04/29 02:44:25;;;;;;;10.03;9.63;;;20.00;61.90;;;;;;5094817;28;20474;-71
2023/04/29 02:46:54;;;;;;;9.70;9.30;;;20.00;61.80;;;;;;5094862;28;20502;-72
2023/04/29 02:49:20;;;;;;;10.20;9.70;;;20.00;61.80;;;;;;5094901;28;20474;-71
2023/04/29 02:51:48;;;;;;;9.70;9.30;;;20.00;61.80;;;;;;5094932;28;20526;-72
2023/04/29 02:54:16;;;;;;;10.17;9.70;;;19.90;61.80;;;;;;5094671;28;20449;-71
2023/04/29 02:56:43;;;;;;;9.50;9.10;;;19.90;62.00;;;;;;5094628;28;20835;-71
2023/04/29 02:59:10;;;;;;;9.00;8.60;;;19.90;62.00;;;;;;5094771;28;20828;-71
2023/04/29 03:01:38;;;;;;;10.87;10.37;;;19.90;62.00;;;;;;5094793;28;20477;-70
2023/04/29 03:04:07;;;;;;;10.17;9.67;;;19.90;62.10;;;;;;5094353;28;20949;-71
2023/04/29 03:06:34;;;;;;;9.67;9.17;;;19.90;62.10;;;;;;5094820;28;20449;-71
2023/04/29 03:09:00;;;;;;;9.73;9.33;;;19.90;62.10;;;;;;5094558;28;20881;-72
2023/04/29 03:11:27;;;;;;;10.83;10.03;;;19.90;62.20;;;;;;5094498;28;20453;-71
2023/04/29 03:13:55;;;;;;;9.20;8.70;;;19.90;62.30;;;;;;5094235;28;20477;-71
2023/04/29 03:16:22;;;;;;;9.20;8.80;;;19.80;62.20;;;;;;5094379;28;20442;-71
2023/04/29 03:18:49;;;;;;;9.57;9.17;;;19.90;62.30;;;;;;5094413;28;20512;-71
2023/04/29 03:21:17;;;;;;;10.07;9.57;;;19.90;62.30;;;;;;5094235;28;20560;-71
2023/04/29 03:23:44;;;;;;;10.23;9.83;;;19.90;62.20;;;;;;5094117;28;20465;-71
2023/04/29 03:26:11;;;;;;;9.67;9.10;;;19.90;62.10;;;;;;5094122;28;20474;-71
2023/04/29 03:28:38;;;;;;;9.70;9.20;;;19.90;62.00;;;;;;5094140;28;20469;-71
2023/04/29 03:31:05;;;;;;;10.13;9.63;;;19.90;62.20;;;;;;5094603;28;20605;-71
2023/04/29 03:33:32;;;;;;;12.07;11.20;;;19.90;62.20;;;;;;5093915;28;20474;-71
2023/04/29 03:35:59;;;;;;;10.13;9.63;;;19.90;62.10;;;;;;5094383;28;20530;-70
2023/04/29 03:38:27;;;;;;;11.23;10.40;;;19.90;62.30;;;;;;5094000;28;20545;-70
2023/04/29 03:40:54;;;;;;;10.53;9.93;;;19.90;62.30;;;;;;5093799;28;20885;-71
2023/04/29 03:43:21;;;;;;;11.73;10.87;;;19.90;62.30;;;;;;5093710;28;20541;-71
2023/04/29 03:45:48;;;;;;;10.87;10.30;;;19.80;62.20;;;;;;5094007;28;20530;-71
2023/04/29 03:48:15;;;;;;;11.00;10.40;;;19.90;62.10;;;;;;5093585;28;20508;-71
2023/04/29 03:50:41;;;;;;;9.87;9.37;;;19.80;62.20;;;;;;5093521;28;20470;-71
2023/04/29 03:53:08;;;;;;;11.50;10.80;;;19.90;62.30;;;;;;5093810;28;20540;-71
2023/04/29 03:55:37;;;;;;;9.63;9.23;;;19.80;62.30;;;;;;5093755;28;20897;-71
2023/04/29 03:58:04;;;;;;;9.70;9.20;;;19.80;62.30;;;;;;5093385;28;20496;-71
2023/04/29 04:00:31;;;;;;;9.63;9.13;;;19.80;62.40;;;;;;5093377;28;20549;-71
2023/04/29 04:02:58;;;;;;;9.57;9.17;;;19.80;62.40;;;;;;5093577;28;20489;-71
2023/04/29 04:05:25;;;;;;;9.00;8.67;;;19.80;62.30;;;;;;5093498;28;20524;-70
2023/04/29 04:07:52;;;;;;;9.70;9.30;;;19.90;62.40;;;;;;5093300;28;20493;-70
2023/04/29 04:10:19;;;;;;;9.07;8.47;;;19.80;62.30;;;;;;5093273;28;20474;-70
2023/04/29 04:12:48;;;;;;;10.10;9.70;;;19.80;62.30;;;;;;5093401;28;20478;-70
2023/04/29 04:15:15;;;;;;;10.23;9.73;;;19.80;62.30;;;;;;5093477;28;20478;-70
2023/04/29 04:17:42;;;;;;;10.87;10.30;;;19.80;62.30;;;;;;5093019;28;20975;-70
2023/04/29 04:20:10;;;;;;;9.53;9.13;;;19.90;62.50;;;;;;5092917;28;20480;-70
2023/04/29 04:22:37;;;;;;;10.93;10.33;;;19.80;62.60;;;;;;5093277;28;20477;-71
2023/04/29 04:25:06;;;;;;;10.37;9.87;;;19.80;62.50;;;;;;5092936;28;20435;-70
2023/04/29 04:27:32;;;;;;;10.90;10.40;;;19.80;62.70;;;;;;5093001;28;20470;-70
2023/04/29 04:30:01;;;;;;;9.37;8.97;;;19.80;62.60;;;;;;5092952;28;20481;-70
2023/04/29 04:32:28;;;;;;;9.33;8.93;;;19.80;62.70;;;;;;5093167;28;20466;-70
2023/04/29 04:34:55;;;;;;;10.30;9.80;;;19.80;62.70;;;;;;5092959;28;20777;-70
2023/04/29 04:37:21;;;;;;;9.33;9.00;;;19.80;62.70;;;;;;5092730;28;20553;-70
2023/04/29 04:39:48;;;;;;;9.10;8.80;;;19.80;62.70;;;;;;5092468;28;20530;-70
2023/04/29 04:42:15;;;;;;;9.07;8.77;;;19.80;62.60;;;;;;5092746;28;20565;-71
2023/04/29 04:44:42;;;;;;;9.70;9.00;;;19.80;62.60;;;;;;5092654;28;20446;-70
2023/04/29 04:47:11;;;;;;;9.93;9.47;;;19.80;62.60;;;;;;5092228;28;20553;-70
2023/04/29 04:49:38;;;;;;;10.20;9.80;;;19.80;62.70;;;;;;5092591;28;20438;-70
2023/04/29 04:52:05;;;;;;;11.20;10.50;;;19.70;62.50;;;;;;5092667;28;20530;-65
2023/04/29 04:54:32;;;;;;;10.23;9.70;;;19.80;62.60;;;;;;5092217;28;20713;-68
2023/04/29 04:56:59;;;;;;;9.53;9.13;;;19.80;63.20;;;;;;5092395;28;20549;-70
2023/04/29 04:59:26;;;;;;;11.03;10.60;;;19.80;63.80;;;;;;5092409;28;20536;-69
2023/04/29 05:01:52;;;;;;;10.43;9.80;;;19.80;64.00;;;;;;5092175;28;20610;-70
2023/04/29 05:04:21;;;;;;;10.00;9.60;;;19.90;64.10;;;;;;5092334;28;20474;-71
2023/04/29 05:06:48;;;;;;;8.90;8.60;;;19.90;64.10;;;;;;5092350;28;20900;-71
2023/04/29 05:09:15;;;;;;;10.37;9.83;;;19.90;63.90;;;;;;5092076;28;20558;-71
2023/04/29 05:11:42;;;;;;;9.50;9.00;;;20.00;63.90;;;;;;5092286;28;20488;-70
2023/04/29 05:14:09;;;;;;;10.30;9.80;;;20.00;63.70;;;;;;5092165;28;20533;-69
2023/04/29 05:16:36;;;;;;;10.10;9.60;;;20.00;63.60;;;;;;5092282;28;20491;-68
2023/04/29 05:19:03;;;;;;;10.40;9.60;;;20.10;64.60;;;;;;5091896;28;20447;-71
2023/04/29 05:21:32;;;;;;;10.50;9.80;;;20.20;64.30;;;;;;5092349;28;20251;-71
2023/04/29 05:23:59;;;;;;;9.90;9.40;;;20.20;63.70;;;;;;5091963;28;20533;-70
2023/04/29 05:26:26;;;;;;;11.00;10.40;;;20.30;63.60;;;;;;5092067;28;20480;-66
2023/04/29 05:28:54;;;;;;;10.40;10.00;;;20.30;64.10;;;;;;5091348;28;20525;-66
2023/04/29 05:31:21;;;;;;;10.77;10.07;;;20.30;64.20;;;;;;5091802;28;20945;-66
2023/04/29 05:33:48;;;;;;;9.80;8.97;;;20.30;64.20;;;;;;5091904;28;20533;-67
2023/04/29 05:36:15;;;;;;;9.47;9.03;;;20.40;64.30;;;;;;5091392;28;20504;-68
2023/04/29 05:38:45;;;;;;;9.30;8.70;;;20.50;63.90;;;;;;5091381;28;20470;-68
2023/04/29 05:41:12;;;;;;;9.97;9.17;;;20.50;63.90;;;;;;5091963;28;20548;-67
2023/04/29 05:43:40;;;;;;;9.67;9.17;;;20.50;63.80;;;;;;5091836;28;20936;-64
2023/04/29 05:46:07;;;;;;;8.37;8.17;;;20.60;63.60;;;;;;5091812;28;20446;-65
2023/04/29 05:48:33;;;;;;;9.60;9.00;;;20.60;63.50;;;;;;5126648;22;20581;-66
2023/04/29 05:51:00;;;;;;;9.10;8.70;;;20.60;63.30;;;;;;5085681;28;20430;-64
2023/04/29 05:53:27;;;;;;;9.77;9.10;;;20.70;63.30;;;;;;5091542;28;20517;-62
2023/04/29 05:55:56;;;;;;;8.60;8.20;;;20.60;62.70;;;;;;5084078;28;20507;-64
2023/04/29 05:58:24;;;;;;;10.63;10.23;;;20.60;62.90;;;;;;5072692;28;20513;-63
2023/04/29 06:00:51;;;;;;;10.27;9.77;;;20.70;63.20;;;;;;5070841;28;20479;-64
2023/04/29 06:03:18;;;;;;;10.57;10.17;;;20.80;62.30;;;;;;5071448;28;20492;-61
2023/04/29 06:05:45;;;;;;;10.53;9.93;;;20.80;62.00;;;;;;5071771;28;20446;-59
2023/04/29 06:08:12;;;;;;;9.90;9.60;;;20.80;61.60;;;;;;5075179;28;20549;-59
2023/04/29 06:10:39;;;;;;;9.80;9.40;;;20.80;61.50;;;;;;5075707;28;20479;-59
2023/04/29 06:13:07;;;;;;;9.70;9.30;;;20.80;61.30;;;;;;5075894;28;20443;-61
2023/04/29 06:15:34;;;;;;;10.57;10.00;;;20.80;61.30;;;;;;5075492;28;20493;-60
2023/04/29 06:18:01;;;;;;;11.27;10.57;;;20.80;61.50;;;;;;5074864;28;20463;-61
2023/04/29 06:20:28;;;;;;;11.27;10.37;;;20.90;62.20;;;;;;5075109;28;20474;-61
2023/04/29 06:22:55;;;;;;;12.10;11.00;;;20.90;63.10;;;;;;5074815;28;20510;-62
2023/04/29 06:25:22;;;;;;;14.00;12.60;;;20.90;65.40;;;;;;5074871;28;20454;-66
2023/04/29 06:27:49;;;;;;;16.53;14.43;;;20.80;73.60;;;;;;5074805;28;20532;-67
2023/04/29 06:30:17;;;;;;;13.80;12.87;;;20.80;73.00;;;;;;5074579;28;20987;-63
2023/04/29 06:32:44;;;;;;;16.20;15.07;;;20.80;73.20;;;;;;5074500;28;20945;-68
2023/04/29 06:35:11;;;;;;;15.87;12.20;;;20.80;74.40;;;;;;5075557;28;20479;-67
2023/04/29 06:37:38;;;;;;;14.70;12.60;;;20.80;73.60;;;;;;5075049;28;20463;-59
2023/04/29 06:40:06;;;;;;;18.20;14.27;;;20.80;73.80;;;;;;5074538;28;20484;-60
2023/04/29 06:42:33;;;;;;;12.10;10.90;;;20.80;75.10;;;;;;5073820;28;20496;-55
2023/04/29 06:45:00;;;;;;;13.17;11.33;;;20.80;74.90;;;;;;5074825;28;20212;-53
2023/04/29 06:47:28;;;;;;;11.03;10.13;;;20.80;74.50;;;;;;5074223;28;20559;-56
2023/04/29 06:49:55;;;;;;;11.40;9.97;;;20.80;73.40;;;;;;5074746;28;20494;-57
2023/04/29 06:52:22;;;;;;;10.97;10.23;;;20.80;72.30;;;;;;5074594;28;20497;-52
2023/04/29 06:54:49;;;;;;;10.87;10.20;;;20.80;71.40;;;;;;5074570;28;20862;-55
2023/04/29 06:57:16;;;;;;;13.20;9.40;;;20.70;70.80;;;;;;5074355;28;20553;-56
2023/04/29 06:59:43;;;;;;;9.13;8.40;;;20.60;70.40;;;;;;5074394;28;20498;-54
2023/04/29 07:02:10;;;;;;;8.77;8.20;;;20.60;70.10;;;;;;5074453;28;20923;-58
2023/04/29 07:04:38;;;;;;;10.33;9.53;;;20.60;69.90;;;;;;5074423;28;20453;-57
2023/04/29 07:07:05;;;;;;;9.87;8.90;;;20.50;69.50;;;;;;5074291;28;20522;-55
2023/04/29 07:09:33;;;;;;;9.40;8.80;;;20.50;69.40;;;;;;5074218;28;20451;-54
2023/04/29 07:12:03;;;;;;;10.63;10.10;;;20.50;69.10;;;;;;5074581;28;20971;-55
2023/04/29 07:14:30;;;;;;;10.10;9.40;;;20.40;68.80;;;;;;5074371;28;20452;-52
2023/04/29 07:16:57;;;;;;;11.10;10.40;;;20.40;68.70;;;;;;5073714;28;20886;-51
2023/04/29 07:19:24;;;;;;;10.20;8.70;;;20.30;68.40;;;;;;5074006;28;20866;-55
2023/04/29 07:21:52;;;;;;;9.80;9.00;;;20.30;68.20;;;;;;5074004;28;20479;-55
2023/04/29 07:24:19;;;;;;;9.67;8.87;;;20.30;68.10;;;;;;5074031;28;20905;-54
2023/04/29 07:26:46;;;;;;;9.23;8.87;;;20.20;67.90;;;;;;5073942;28;20981;-55
2023/04/29 07:29:13;;;;;;;9.63;9.00;;;20.20;68.50;;;;;;5073920;28;20530;-57
2023/04/29 07:31:40;;;;;;;9.27;8.83;;;20.20;67.70;;;;;;5074025;28;20543;-56
2023/04/29 07:34:07;;;;;;;8.90;8.20;;;20.20;67.60;;;;;;5073980;28;20860;-58
2023/04/29 07:36:34;;;;;;;9.70;9.10;;;20.20;67.50;;;;;;5073759;28;20546;-54
2023/04/29 07:39:03;;;;;;;9.77;9.17;;;20.10;67.40;;;;;;5073673;28;20457;-53
2023/04/29 07:41:30;;;;;;;9.20;8.70;;;20.10;67.30;;;;;;5073695;28;20479;-55
2023/04/29 07:43:57;;;;;;;8.83;8.40;;;20.10;67.20;;;;;;5073834;28;20534;-55
2023/04/29 07:46:24;;;;;;;10.87;10.20;;;20.10;67.10;;;;;;5073694;28;20534;-52
2023/04/29 07:48:51;;;;;;;10.40;9.70;;;20.00;66.90;;;;;;5073429;28;20570;-56
2023/04/29 07:51:18;;;;;;;8.70;8.37;;;20.00;66.80;;;;;;5073517;28;20942;-54
2023/04/29 07:53:45;;;;;;;9.83;9.23;;;20.00;66.70;;;;;;5073492;28;20999;-55
2023/04/29 07:56:13;;;;;;;9.30;8.83;;;20.00;66.50;;;;;;5073629;28;20938;-54
2023/04/29 07:58:40;;;;;;;9.07;8.70;;;20.00;66.50;;;;;;5073272;28;20491;-57
2023/04/29 08:01:08;;;;;;;9.13;8.40;;;20.00;66.40;;;;;;5073443;28;20471;-55
2023/04/29 08:03:34;;;;;;;8.00;7.60;;;20.00;66.30;;;;;;5073274;28;20447;-53
2023/04/29 08:06:02;;;;;;;9.43;8.53;;;20.00;66.30;;;;;;5073330;28;20530;-54
2023/04/29 08:08:29;;;;;;;8.40;8.10;;;20.00;66.20;;;;;;5073059;28;20539;-54
2023/04/29 08:10:56;;;;;;;8.60;8.20;;;20.00;66.00;;;;;;5073249;28;20474;-57
2023/04/29 08:13:25;;;;;;;8.53;8.23;;;20.00;65.80;;;;;;5073108;28;20860;-57
2023/04/29 08:15:52;;;;;;;9.07;8.57;;;20.00;65.60;;;;;;5073183;28;20884;-57
2023/04/29 08:18:20;;;;;;;7.43;7.13;;;20.00;65.40;;;;;;5072790;28;20499;-54
2023/04/29 08:20:48;;;;;;;7.90;7.60;;;20.00;65.30;;;;;;5072971;28;20443;-56
2023/04/29 08:23:15;;;;;;;9.10;8.60;;;20.00;65.20;;;;;;5072858;28;20479;-55
2023/04/29 08:25:43;;;;;;;8.07;7.77;;;20.00;65.10;;;;;;5072791;28;20479;-57
2023/04/29 08:28:10;;;;;;;8.40;8.07;;;20.00;65.00;;;;;;5072348;28;20467;-55
2023/04/29 08:30:40;;;;;;;9.83;9.03;;;20.00;65.00;;;;;;5072521;28;20573;-56
2023/04/29 08:33:07;;;;;;;8.83;8.10;;;20.00;64.90;;;;;;5072768;28;20441;-56
2023/04/29 08:35:36;;;;;;;7.93;7.63;;;20.00;64.80;;;;;;5072632;28;20486;-55
2023/04/29 08:38:05;;;;;;;8.40;8.10;;;20.00;64.80;;;;;;5072425;28;20982;-54
2023/04/29 08:40:34;;;;;;;8.27;7.97;;;20.00;64.70;;;;;;5072580;28;20536;-57
2023/04/29 08:43:02;;;;;;;8.30;7.97;;;20.00;64.60;;;;;;5072494;28;20522;-56
2023/04/29 08:45:31;;;;;;;10.07;9.37;;;20.00;64.50;;;;;;5072439;28;20486;-55
2023/04/29 08:48:00;;;;;;;8.83;8.53;;;20.00;64.50;;;;;;5072218;28;20485;-58
2023/04/29 08:50:28;;;;;;;9.70;9.30;;;20.00;64.50;;;;;;5072366;28;20451;-57
2023/04/29 08:52:55;;;;;;;8.97;8.57;;;20.00;64.30;;;;;;5072387;28;20439;-57
2023/04/29 08:55:22;;;;;;;8.20;7.90;;;20.00;64.30;;;;;;5072286;28;20519;-58
2023/04/29 08:57:50;;;;;;;8.27;7.97;;;19.90;64.10;;;;;;5072086;28;20898;-56
2023/04/29 09:00:18;;;;;;;9.00;8.60;;;20.00;64.20;;;;;;5072204;28;20486;-58
2023/04/29 09:02:48;;;;;;;8.30;8.10;;;19.90;64.00;;;;;;5071956;28;20479;-58
2023/04/29 09:05:17;;;;;;;8.70;8.43;;;19.90;63.90;;;;;;5072367;28;20439;-56
2023/04/29 09:07:44;;;;;;;7.93;7.67;;;19.90;64.00;;;;;;5071845;28;20993;-58
2023/04/29 09:10:12;;;;;;;8.00;7.60;;;19.90;64.00;;;;;;5072064;28;20443;-57
2023/04/29 09:12:39;;;;;;;7.93;7.70;;;19.90;63.90;;;;;;5072060;28;20475;-56
2023/04/29 09:15:06;;;;;;;7.77;7.57;;;19.90;63.90;;;;;;5071936;28;20471;-57
2023/04/29 09:17:41;;;;;;;8.60;8.20;;;19.90;63.80;;;;;;5071619;28;20505;-57
2023/04/29 09:20:27;;;;;;;7.70;7.40;;;19.80;63.70;;;;;;5071927;28;20439;-58
2023/04/29 09:22:56;;;;;;;7.77;7.47;;;19.80;63.60;;;;;;5071818;28;20506;-58
2023/04/29 09:25:23;;;;;;;8.00;7.70;;;19.80;63.60;;;;;;5071869;28;21138;-57
2023/04/29 09:27:50;;;;;;;7.67;7.40;;;19.80;63.60;;;;;;5071450;28;21021;-57
2023/04/29 09:30:18;;;;;;;7.77;7.47;;;19.80;63.50;;;;;;5071834;28;20439;-59
2023/04/29 09:32:46;;;;;;;7.63;7.33;;;19.80;63.50;;;;;;5071952;28;20446;-58
2023/04/29 09:35:32;;;;;;;7.90;7.70;;;19.80;63.50;;;;;;5071647;28;20543;-59
2023/04/29 09:38:13;;;;;;;7.90;7.70;;;19.80;63.50;;;;;;5071460;28;20565;-58
2023/04/29 09:40:40;;;;;;;7.47;7.27;;;19.80;63.40;;;;;;5071518;28;20466;-59
2023/04/29 09:43:13;;;;;;;7.20;6.87;;;19.80;63.40;;;;;;5071659;28;20558;-56
2023/04/29 09:45:42;;;;;;;8.13;7.90;;;19.80;63.40;;;;;;5071598;28;20453;-58
2023/04/29 09:48:10;;;;;;;8.47;8.17;;;19.70;63.30;;;;;;5071295;28;20502;-56
2023/04/29 09:50:39;;;;;;;8.40;7.90;;;19.70;63.20;;;;;;5071553;28;20467;-57
2023/04/29 09:53:09;;;;;;;8.20;7.90;;;19.80;63.30;;;;;;5071470;28;20783;-57
2023/04/29 09:55:37;;;;;;;8.33;8.03;;;19.70;63.20;;;;;;5071425;28;20532;-57
2023/04/29 09:58:05;;;;;;;7.80;7.60;;;19.70;63.20;;;;;;5071291;28;20514;-58
2023/04/29 10:00:33;;;;;;;7.53;7.27;;;19.70;63.10;;;;;;5071428;28;20451;-58
2023/04/29 10:03:01;;;;;;;7.60;7.30;;;19.70;63.10;;;;;;5071328;28;20573;-57
2023/04/29 10:05:30;;;;;;;7.23;7.03;;;19.70;63.00;;;;;;5071430;28;20518;-56
2023/04/29 10:08:00;;;;;;;8.07;7.77;;;19.70;63.00;;;;;;5071146;28;20558;-57
2023/04/29 10:10:29;;;;;;;8.00;7.80;;;19.70;63.00;;;;;;5071397;28;20534;-57
2023/04/29 10:12:57;;;;;;;8.57;8.23;;;19.70;63.00;;;;;;5071449;28;20530;-58
2023/04/29 10:15:29;;;;;;;7.70;7.50;;;19.70;62.90;;;;;;5071318;28;20447;-57
2023/04/29 10:18:03;;;;;;;8.80;8.50;;;19.70;62.90;;;;;;5071106;28;20494;-58
2023/04/29 10:20:31;;;;;;;9.00;8.67;;;19.70;62.90;;;;;;5071223;28;20443;-59
2023/04/29 10:23:00;;;;;;;8.70;8.40;;;19.70;62.90;;;;;;5071167;28;20483;-58
2023/04/29 10:25:27;;;;;;;8.47;8.17;;;19.70;62.80;;;;;;5071159;28;20539;-57
2023/04/29 10:27:55;;;;;;;7.97;7.77;;;19.70;62.80;;;;;;5070907;28;20550;-58
2023/04/29 10:30:23;;;;;;;8.70;8.40;;;19.70;62.80;;;;;;5071258;28;20447;-57
2023/04/29 10:32:51;;;;;;;8.73;8.30;;;19.70;62.80;;;;;;5071134;28;20861;-58
2023/04/29 10:35:21;;;;;;;9.60;9.30;;;19.70;62.80;;;;;;5071323;28;20439;-57
2023/04/29 10:37:49;;;;;;;8.57;8.27;;;19.70;62.60;;;;;;5070843;28;20561;-57
2023/04/29 10:40:22;;;;;;;8.93;8.63;;;19.70;62.50;;;;;;5071108;28;20535;-58
2023/04/29 10:42:50;;;;;;;9.20;8.90;;;19.70;62.40;;;;;;5070979;28;20569;-57
2023/04/29 10:45:25;;;;;;;9.20;8.70;;;19.70;62.30;;;;;;5070912;28;20522;-59
2023/04/29 10:48:12;;;;;;;8.33;8.03;;;19.70;62.30;;;;;;5070826;28;20481;-58
2023/04/29 10:51:01;;;;;;;8.40;8.20;;;19.70;62.20;;;;;;5071037;28;20505;-59
2023/04/29 10:53:29;;;;;;;9.33;9.03;;;19.70;62.10;;;;;;5073839;28;20804;-56
2023/04/29 10:55:59;;;;;;;9.00;8.60;;;19.70;62.10;;;;;;5074675;28;20504;-58
2023/04/29 10:58:38;;;;;;;9.07;8.57;;;19.70;62.10;;;;;;5074575;28;20486;-58
2023/04/29 11:01:09;;;;;;;9.13;8.80;;;19.70;62.10;;;;;;5074458;28;20481;-56
2023/04/29 11:03:53;;;;;;;8.70;8.40;;;19.70;62.10;;;;;;5074522;28;20544;-59
2023/04/29 11:06:22;;;;;;;8.97;8.60;;;19.70;62.00;;;;;;5074465;28;20446;-58
2023/04/29 11:09:00;;;;;;;9.80;9.20;;;19.70;61.90;;;;;;5074233;28;20902;-58
2023/04/29 11:11:41;;;;;;;8.20;7.90;;;19.70;62.00;;;;;;5074350;28;20457;-58
2023/04/29 11:14:09;;;;;;;9.47;9.07;;;19.70;61.90;;;;;;5074254;28;20446;-58
2023/04/29 11:16:37;;;;;;;8.27;7.97;;;19.70;61.90;;;;;;5074162;28;20886;-57
2023/04/29 11:19:05;;;;;;;9.10;8.80;;;19.70;61.90;;;;;;5074030;28;20443;-58
2023/04/29 11:21:34;;;;;;;9.30;9.00;;;19.70;61.90;;;;;;5074097;28;20478;-57
2023/04/29 11:24:02;;;;;;;8.93;8.43;;;19.70;61.90;;;;;;5074116;28;20521;-57
2023/04/29 11:26:30;;;;;;;9.47;8.97;;;19.70;61.80;;;;;;5074059;28;20546;-58
2023/04/29 11:28:58;;;;;;;8.90;8.60;;;19.70;61.80;;;;;;5073758;28;20470;-57
2023/04/29 11:31:30;;;;;;;9.00;8.70;;;19.70;61.80;;;;;;5073919;28;20976;-58
2023/04/29 11:33:57;;;;;;;8.20;7.90;;;19.70;61.80;;;;;;5073964;28;20444;-55
2023/04/29 11:36:24;;;;;;;9.47;9.07;;;19.70;61.80;;;;;;5073952;28;20471;-56
2023/04/29 11:38:51;;;;;;;8.67;8.37;;;19.70;61.70;;;;;;5073581;28;20981;-57
2023/04/29 11:41:18;;;;;;;9.30;8.70;;;19.70;61.70;;;;;;5073790;28;20481;-59
2023/04/29 11:43:47;;;;;;;8.50;8.20;;;19.70;61.60;;;;;;5073550;28;20517;-59
2023/04/29 11:46:15;;;;;;;9.70;9.30;;;19.70;61.70;;;;;;5073754;28;20871;-60
2023/04/29 11:48:51;;;;;;;8.87;8.57;;;19.70;61.70;;;;;;5074138;28;20493;-54
2023/04/29 11:51:19;;;;;;;9.93;9.43;;;19.70;61.70;;;;;;5073720;28;20508;-58
2023/04/29 11:53:47;;;;;;;9.40;9.00;;;19.70;61.70;;;;;;5073475;28;20443;-56
2023/04/29 11:56:13;;;;;;;10.07;9.67;;;19.70;61.60;;;;;;5073548;28;20451;-54
2023/04/29 11:58:43;;;;;;;9.33;8.83;;;19.70;61.70;;;;;;5073218;28;20546;-59
2023/04/29 12:01:11;;;;;;;9.80;9.40;;;19.70;61.70;;;;;;5073654;28;20447;-58
2023/04/29 12:03:38;;;;;;;9.93;9.53;;;19.70;61.60;;;;;;5073200;28;20572;-58
2023/04/29 12:06:05;;;;;;;9.30;9.00;;;19.70;61.60;;;;;;5073282;28;20526;-59
2023/04/29 12:08:33;;;;;;;9.73;9.27;;;19.70;61.60;;;;;;5073066;28;21020;-58
2023/04/29 12:11:01;;;;;;;8.90;8.60;;;19.70;61.60;;;;;;5073246;28;20443;-58
2023/04/29 12:13:30;;;;;;;9.67;9.17;;;19.70;61.60;;;;;;5073324;28;20447;-58
2023/04/29 12:15:58;;;;;;;8.80;8.40;;;19.70;61.50;;;;;;5073164;28;20808;-58
2023/04/29 12:18:27;;;;;;;9.03;8.63;;;19.70;61.60;;;;;;5072813;28;20551;-57
2023/04/29 12:20:55;;;;;;;9.43;9.13;;;19.70;61.60;;;;;;5073036;28;20964;-59
2023/04/29 12:23:25;;;;;;;9.67;9.37;;;19.70;61.60;;;;;;5072865;28;20861;-59
2023/04/29 12:25:54;;;;;;;9.80;9.40;;;19.70;61.50;;;;;;5072932;28;20455;-60
2023/04/29 12:28:21;;;;;;;10.10;9.70;;;19.70;61.50;;;;;;5072665;28;20502;-59
2023/04/29 12:30:50;;;;;;;9.00;8.70;;;19.70;61.60;;;;;;5072877;28;20530;-55
2023/04/29 12:33:20;;;;;;;9.07;8.70;;;19.70;61.60;;;;;;5072810;28;20439;-57
2023/04/29 12:35:50;;;;;;;9.83;9.33;;;19.70;61.60;;;;;;5072673;28;20538;-56
2023/04/29 12:38:20;;;;;;;10.17;9.67;;;19.70;61.50;;;;;;5072512;28;20479;-56
2023/04/29 12:40:47;;;;;;;8.93;8.63;;;19.70;61.50;;;;;;5072558;28;20444;-58
2023/04/29 12:43:15;;;;;;;8.60;8.30;;;19.70;61.50;;;;;;5072468;28;20511;-59
2023/04/29 12:45:42;;;;;;;8.37;8.07;;;19.70;61.50;;;;;;5072525;28;20451;-58
2023/04/29 12:48:08;;;;;;;8.80;8.50;;;19.70;61.50;;;;;;5072137;28;20479;-59